Myrtlewood, Alabama
Current Conditions -  °F | °C
As of 10:35 AM on Wednesday 22 Oct 2014 (Local Time) from KDYA Reporting Station
Clear Clear  
Wind Chill: 64°   Ceiling: Unl
Heat Index: 64°   Visibility: 10mi
Dew Point: 48°   Wind: 8mph
Humidity: 56%   Direction: 50°NE
Pressure: 30.17"   Gusts: NA
Location:  32.25°N, 87.95°W
Report Text: KDYA 221535Z AUTO 05007KT 350V080 10SM CLR 18/09 A3017 RMK AO2 T01760087
Loading
Personal Weather Stations






























Interactive Weather Map
Tropical Storm Tracking
New forecast layout! Learn more

10-Day Weather Forecast

Advertisements
Track Severe Weather on mobile